sensor_id;sensor_type;location;lat;lon;timestamp;pressure;altitude;pressure_sealevel;temperature;humidity
33185;BME280;19550;42.872;25.494;2023-05-11T00:00:36;96724.47;;;7.64;100.00
33185;BME280;19550;42.872;25.494;2023-05-11T00:03:02;96722.22;;;7.66;100.00
33185;BME280;19550;42.872;25.494;2023-05-11T00:05:31;96719.72;;;7.69;100.00
33185;BME280;19550;42.872;25.494;2023-05-11T00:07:58;96719.47;;;7.66;100.00
33185;BME280;19550;42.872;25.494;2023-05-11T00:10:26;96721.19;;;7.62;100.00
33185;BME280;19550;42.872;25.494;2023-05-11T00:12:53;96723.25;;;7.51;100.00
33185;BME280;19550;42.872;25.494;2023-05-11T00:15:20;96719.22;;;7.38;100.00
33185;BME280;19550;42.872;25.494;2023-05-11T00:17:47;96722.66;;;7.25;100.00
33185;BME280;19550;42.872;25.494;2023-05-11T00:20:14;96726.31;;;7.21;100.00
33185;BME280;19550;42.872;25.494;2023-05-11T00:22:42;96722.72;;;7.20;100.00
33185;BME280;19550;42.872;25.494;2023-05-11T00:25:09;96722.53;;;7.11;100.00
33185;BME280;19550;42.872;25.494;2023-05-11T00:27:36;96721.16;;;7.14;100.00
33185;BME280;19550;42.872;25.494;2023-05-11T00:30:03;96725.34;;;7.06;100.00
33185;BME280;19550;42.872;25.494;2023-05-11T00:32:30;96723.19;;;7.03;100.00
33185;BME280;19550;42.872;25.494;2023-05-11T00:34:56;96730.22;;;6.86;100.00
33185;BME280;19550;42.872;25.494;2023-05-11T00:37:23;96735.16;;;6.89;100.00
33185;BME280;19550;42.872;25.494;2023-05-11T00:39:51;96730.28;;;6.81;100.00
33185;BME280;19550;42.872;25.494;2023-05-11T00:42:18;96729.78;;;6.73;100.00
33185;BME280;19550;42.872;25.494;2023-05-11T00:44:45;96737.88;;;6.60;100.00
33185;BME280;19550;42.872;25.494;2023-05-11T00:47:12;96733.72;;;6.62;100.00
33185;BME280;19550;42.872;25.494;2023-05-11T00:49:39;96728.78;;;6.59;100.00
33185;BME280;19550;42.872;25.494;2023-05-11T00:52:07;96727.44;;;6.57;100.00
33185;BME280;19550;42.872;25.494;2023-05-11T00:54:34;96729.31;;;6.61;100.00
33185;BME280;19550;42.872;25.494;2023-05-11T00:57:03;96734.63;;;6.53;100.00
33185;BME280;19550;42.872;25.494;2023-05-11T00:59:30;96738.47;;;6.52;100.00
33185;BME280;19550;42.872;25.494;2023-05-11T01:01:57;96736.53;;;6.57;100.00
33185;BME280;19550;42.872;25.494;2023-05-11T01:04:24;96740.53;;;6.36;100.00
33185;BME280;19550;42.872;25.494;2023-05-11T01:06:57;96737.00;;;6.30;100.00
33185;BME280;19550;42.872;25.494;2023-05-11T01:09:34;96742.78;;;6.29;100.00
33185;BME280;19550;42.872;25.494;2023-05-11T01:12:13;96736.22;;;6.25;100.00
33185;BME280;19550;42.872;25.494;2023-05-11T01:14:46;96738.66;;;6.26;100.00
33185;BME280;19550;42.872;25.494;2023-05-11T01:17:19;96739.50;;;6.22;100.00
33185;BME280;19550;42.872;25.494;2023-05-11T01:19:52;96737.72;;;6.02;100.00
33185;BME280;19550;42.872;25.494;2023-05-11T01:22:34;96744.53;;;6.10;100.00
33185;BME280;19550;42.872;25.494;2023-05-11T01:25:16;96745.28;;;6.20;100.00
33185;BME280;19550;42.872;25.494;2023-05-11T01:30:50;96738.22;;;6.09;100.00
33185;BME280;19550;42.872;25.494;2023-05-11T01:33:21;96739.63;;;6.02;100.00
33185;BME280;19550;42.872;25.494;2023-05-11T01:35:52;96743.75;;;6.04;100.00
33185;BME280;19550;42.872;25.494;2023-05-11T01:38:23;96740.50;;;5.92;100.00
33185;BME280;19550;42.872;25.494;2023-05-11T01:40:55;96732.59;;;5.65;100.00
33185;BME280;19550;42.872;25.494;2023-05-11T01:43:25;96737.81;;;5.67;100.00
33185;BME280;19550;42.872;25.494;2023-05-11T01:45:58;96737.25;;;5.75;100.00
33185;BME280;19550;42.872;25.494;2023-05-11T01:48:28;96740.06;;;5.65;100.00
33185;BME280;19550;42.872;25.494;2023-05-11T01:51:00;96740.84;;;5.65;100.00
33185;BME280;19550;42.872;25.494;2023-05-11T01:53:29;96735.66;;;5.58;100.00
33185;BME280;19550;42.872;25.494;2023-05-11T01:55:58;96743.13;;;5.48;100.00
33185;BME280;19550;42.872;25.494;2023-05-11T01:58:27;96739.81;;;5.56;100.00
33185;BME280;19550;42.872;25.494;2023-05-11T02:00:56;96749.44;;;5.53;100.00
33185;BME280;19550;42.872;25.494;2023-05-11T02:03:25;96741.22;;;5.43;100.00
33185;BME280;19550;42.872;25.494;2023-05-11T02:05:53;96741.50;;;5.42;100.00
33185;BME280;19550;42.872;25.494;2023-05-11T02:08:21;96741.19;;;5.48;100.00
33185;BME280;19550;42.872;25.494;2023-05-11T02:10:49;96743.94;;;5.48;100.00
33185;BME280;19550;42.872;25.494;2023-05-11T02:13:17;96737.91;;;5.46;100.00
33185;BME280;19550;42.872;25.494;2023-05-11T02:15:46;96739.84;;;5.51;100.00
33185;BME280;19550;42.872;25.494;2023-05-11T02:18:18;96743.97;;;5.43;100.00
33185;BME280;19550;42.872;25.494;2023-05-11T02:20:46;96731.03;;;5.39;100.00
33185;BME280;19550;42.872;25.494;2023-05-11T02:23:13;96732.75;;;5.25;100.00
33185;BME280;19550;42.872;25.494;2023-05-11T02:25:42;96735.22;;;5.26;100.00
33185;BME280;19550;42.872;25.494;2023-05-11T02:28:09;96728.06;;;5.30;100.00
33185;BME280;19550;42.872;25.494;2023-05-11T02:30:40;96729.94;;;5.40;100.00
33185;BME280;19550;42.872;25.494;2023-05-11T02:33:13;96728.06;;;5.30;100.00
33185;BME280;19550;42.872;25.494;2023-05-11T02:35:45;96723.94;;;5.28;100.00
33185;BME280;19550;42.872;25.494;2023-05-11T02:38:13;96721.75;;;5.30;100.00
33185;BME280;19550;42.872;25.494;2023-05-11T02:40:45;96724.47;;;5.35;100.00
33185;BME280;19550;42.872;25.494;2023-05-11T02:43:16;96723.66;;;5.29;100.00
33185;BME280;19550;42.872;25.494;2023-05-11T02:45:45;96720.38;;;5.22;100.00
33185;BME280;19550;42.872;25.494;2023-05-11T02:48:20;96724.28;;;5.11;100.00
33185;BME280;19550;42.872;25.494;2023-05-11T02:50:50;96723.97;;;5.12;100.00
33185;BME280;19550;42.872;25.494;2023-05-11T02:53:19;96727.53;;;5.28;100.00
33185;BME280;19550;42.872;25.494;2023-05-11T02:55:49;96737.16;;;5.05;100.00
33185;BME280;19550;42.872;25.494;2023-05-11T02:58:17;96737.41;;;5.19;100.00
33185;BME280;19550;42.872;25.494;2023-05-11T03:00:44;96735.53;;;5.09;100.00
33185;BME280;19550;42.872;25.494;2023-05-11T03:03:11;96740.75;;;5.11;100.00
33185;BME280;19550;42.872;25.494;2023-05-11T03:05:38;96734.97;;;5.07;100.00
33185;BME280;19550;42.872;25.494;2023-05-11T03:08:07;96736.91;;;5.02;100.00
33185;BME280;19550;42.872;25.494;2023-05-11T03:10:34;96739.94;;;5.00;100.00
33185;BME280;19550;42.872;25.494;2023-05-11T03:13:01;96741.88;;;5.05;100.00
33185;BME280;19550;42.872;25.494;2023-05-11T03:15:30;96744.59;;;5.10;100.00
33185;BME280;19550;42.872;25.494;2023-05-11T03:17:58;96737.47;;;4.99;100.00
33185;BME280;19550;42.872;25.494;2023-05-11T03:20:26;96741.03;;;5.04;100.00
33185;BME280;19550;42.872;25.494;2023-05-11T03:22:54;96738.84;;;5.11;100.00
33185;BME280;19550;42.872;25.494;2023-05-11T03:25:23;96732.50;;;5.16;100.00
33185;BME280;19550;42.872;25.494;2023-05-11T03:27:52;96735.22;;;5.26;100.00
33185;BME280;19550;42.872;25.494;2023-05-11T03:30:21;96739.59;;;5.32;100.00
33185;BME280;19550;42.872;25.494;2023-05-11T03:32:48;96747.84;;;5.32;100.00
33185;BME280;19550;42.872;25.494;2023-05-11T03:35:15;96735.75;;;5.28;100.00
33185;BME280;19550;42.872;25.494;2023-05-11T03:37:43;96744.50;;;5.50;100.00
33185;BME280;19550;42.872;25.494;2023-05-11T03:40:11;96739.53;;;5.52;100.00
33185;BME280;19550;42.872;25.494;2023-05-11T03:42:42;96748.81;;;5.67;100.00
33185;BME280;19550;42.872;25.494;2023-05-11T03:45:12;96740.84;;;5.70;100.00
33185;BME280;19550;42.872;25.494;2023-05-11T03:47:40;96741.31;;;5.92;100.00
33185;BME280;19550;42.872;25.494;2023-05-11T03:50:09;96739.06;;;6.05;100.00
33185;BME280;19550;42.872;25.494;2023-05-11T03:52:36;96749.81;;;6.01;100.00
33185;BME280;19550;42.872;25.494;2023-05-11T03:55:04;96737.44;;;6.04;100.00
33185;BME280;19550;42.872;25.494;2023-05-11T03:57:31;96740.34;;;6.22;100.00
33185;BME280;19550;42.872;25.494;2023-05-11T04:00:00;96740.84;;;6.29;100.00
33185;BME280;19550;42.872;25.494;2023-05-11T04:02:26;96742.41;;;6.41;100.00
33185;BME280;19550;42.872;25.494;2023-05-11T04:04:53;96734.44;;;6.39;100.00
33185;BME280;19550;42.872;25.494;2023-05-11T04:07:20;96727.03;;;6.34;100.00
33185;BME280;19550;42.872;25.494;2023-05-11T04:09:47;96731.88;;;6.53;100.00
33185;BME280;19550;42.872;25.494;2023-05-11T04:12:14;96742.38;;;6.51;100.00
33185;BME280;19550;42.872;25.494;2023-05-11T04:14:40;96730.16;;;6.62;100.00
33185;BME280;19550;42.872;25.494;2023-05-11T04:17:09;96737.53;;;6.66;100.00
33185;BME280;19550;42.872;25.494;2023-05-11T04:19:35;96729.13;;;6.87;100.00
33185;BME280;19550;42.872;25.494;2023-05-11T04:22:02;96749.88;;;7.08;100.00
33185;BME280;19550;42.872;25.494;2023-05-11T04:24:29;96744.91;;;7.10;100.00
33185;BME280;19550;42.872;25.494;2023-05-11T04:26:56;96739.69;;;7.32;100.00
33185;BME280;19550;42.872;25.494;2023-05-11T04:29:23;96736.22;;;7.50;100.00
33185;BME280;19550;42.872;25.494;2023-05-11T04:31:50;96738.31;;;7.58;100.00
33185;BME280;19550;42.872;25.494;2023-05-11T04:34:18;96737.97;;;7.89;100.00
33185;BME280;19550;42.872;25.494;2023-05-11T04:36:46;96739.91;;;8.07;100.00
33185;BME280;19550;42.872;25.494;2023-05-11T04:39:13;96727.59;;;8.18;100.00
33185;BME280;19550;42.872;25.494;2023-05-11T04:41:41;96744.25;;;8.37;99.98
33185;BME280;19550;42.872;25.494;2023-05-11T04:44:08;96734.06;;;8.51;99.34
33185;BME280;19550;42.872;25.494;2023-05-11T04:46:35;96731.97;;;8.81;97.63
33185;BME280;19550;42.872;25.494;2023-05-11T04:49:03;96734.59;;;9.04;95.07
33185;BME280;19550;42.872;25.494;2023-05-11T04:51:31;96737.63;;;9.22;93.85
33185;BME280;19550;42.872;25.494;2023-05-11T04:53:58;96741.88;;;9.46;94.44
33185;BME280;19550;42.872;25.494;2023-05-11T04:56:25;96731.25;;;9.67;92.90
33185;BME280;19550;42.872;25.494;2023-05-11T04:58:51;96732.19;;;9.90;91.69
33185;BME280;19550;42.872;25.494;2023-05-11T05:01:18;96731.34;;;10.03;91.35
33185;BME280;19550;42.872;25.494;2023-05-11T05:03:47;96728.25;;;10.05;91.08
33185;BME280;19550;42.872;25.494;2023-05-11T05:06:14;96727.44;;;10.18;89.17
33185;BME280;19550;42.872;25.494;2023-05-11T05:08:42;96719.88;;;10.23;89.75
33185;BME280;19550;42.872;25.494;2023-05-11T05:11:09;96727.94;;;10.33;90.07
33185;BME280;19550;42.872;25.494;2023-05-11T05:13:36;96731.28;;;10.44;90.30
33185;BME280;19550;42.872;25.494;2023-05-11T05:16:03;96728.31;;;10.54;88.93
33185;BME280;19550;42.872;25.494;2023-05-11T05:18:30;96718.91;;;10.64;88.30
33185;BME280;19550;42.872;25.494;2023-05-11T05:20:57;96726.75;;;10.62;87.47
33185;BME280;19550;42.872;25.494;2023-05-11T05:23:24;96723.31;;;10.65;88.01
33185;BME280;19550;42.872;25.494;2023-05-11T05:25:52;96729.47;;;10.75;87.02
33185;BME280;19550;42.872;25.494;2023-05-11T05:28:19;96719.53;;;10.97;86.87
33185;BME280;19550;42.872;25.494;2023-05-11T05:30:46;96722.53;;;11.09;85.69
33185;BME280;19550;42.872;25.494;2023-05-11T05:33:12;96725.47;;;11.35;85.11
33185;BME280;19550;42.872;25.494;2023-05-11T05:35:39;96727.59;;;11.38;85.15
33185;BME280;19550;42.872;25.494;2023-05-11T05:38:07;96724.75;;;11.51;83.81
33185;BME280;19550;42.872;25.494;2023-05-11T05:40:34;96728.53;;;11.55;84.84
33185;BME280;19550;42.872;25.494;2023-05-11T05:43:05;96734.94;;;11.65;84.28
33185;BME280;19550;42.872;25.494;2023-05-11T05:45:31;96726.25;;;11.88;83.51
33185;BME280;19550;42.872;25.494;2023-05-11T05:47:58;96722.75;;;12.14;81.69
33185;BME280;19550;42.872;25.494;2023-05-11T05:50:25;96722.28;;;12.20;81.45
33185;BME280;19550;42.872;25.494;2023-05-11T05:52:52;96723.59;;;12.31;80.31
33185;BME280;19550;42.872;25.494;2023-05-11T05:55:19;96724.91;;;12.34;80.47
33185;BME280;19550;42.872;25.494;2023-05-11T05:57:46;96722.31;;;12.29;80.37
33185;BME280;19550;42.872;25.494;2023-05-11T06:00:15;96721.44;;;12.20;81.40
33185;BME280;19550;42.872;25.494;2023-05-11T06:02:43;96735.00;;;12.13;81.06
33185;BME280;19550;42.872;25.494;2023-05-11T06:05:10;96730.44;;;12.25;80.55
33185;BME280;19550;42.872;25.494;2023-05-11T06:07:37;96731.47;;;12.38;79.38
33185;BME280;19550;42.872;25.494;2023-05-11T06:10:04;96731.47;;;12.29;79.69
33185;BME280;19550;42.872;25.494;2023-05-11T06:12:31;96740.94;;;12.37;79.92
33185;BME280;19550;42.872;25.494;2023-05-11T06:14:58;96734.44;;;12.59;79.73
33185;BME280;19550;42.872;25.494;2023-05-11T06:17:26;96732.47;;;12.77;78.63
33185;BME280;19550;42.872;25.494;2023-05-11T06:19:53;96735.59;;;12.75;76.92
33185;BME280;19550;42.872;25.494;2023-05-11T06:22:20;96727.25;;;12.84;76.99
33185;BME280;19550;42.872;25.494;2023-05-11T06:24:47;96733.66;;;13.01;77.35
33185;BME280;19550;42.872;25.494;2023-05-11T06:27:13;96729.41;;;13.12;77.05
33185;BME280;19550;42.872;25.494;2023-05-11T06:29:40;96733.34;;;13.20;76.05
33185;BME280;19550;42.872;25.494;2023-05-11T06:32:07;96735.94;;;13.25;76.05
33185;BME280;19550;42.872;25.494;2023-05-11T06:34:35;96741.81;;;13.24;73.88
33185;BME280;19550;42.872;25.494;2023-05-11T06:37:03;96735.56;;;13.44;75.29
33185;BME280;19550;42.872;25.494;2023-05-11T06:39:30;96727.53;;;13.51;74.14
33185;BME280;19550;42.872;25.494;2023-05-11T06:42:00;96739.50;;;13.51;71.35
33185;BME280;19550;42.872;25.494;2023-05-11T06:44:27;96741.50;;;13.42;71.07
33185;BME280;19550;42.872;25.494;2023-05-11T06:46:54;96736.06;;;13.55;71.23
33185;BME280;19550;42.872;25.494;2023-05-11T06:49:20;96741.44;;;13.60;70.15
33185;BME280;19550;42.872;25.494;2023-05-11T06:51:49;96744.94;;;13.31;69.59
33185;BME280;19550;42.872;25.494;2023-05-11T06:54:15;96735.09;;;13.42;69.80
33185;BME280;19550;42.872;25.494;2023-05-11T06:56:42;96739.84;;;13.33;70.22
33185;BME280;19550;42.872;25.494;2023-05-11T06:59:09;96745.69;;;13.57;70.35
33185;BME280;19550;42.872;25.494;2023-05-11T07:01:36;96732.56;;;13.75;70.74
33185;BME280;19550;42.872;25.494;2023-05-11T07:04:03;96740.03;;;13.91;70.62
33185;BME280;19550;42.872;25.494;2023-05-11T07:06:30;96734.16;;;14.22;69.20
33185;BME280;19550;42.872;25.494;2023-05-11T07:08:59;96731.38;;;14.22;67.97
33185;BME280;19550;42.872;25.494;2023-05-11T07:11:28;96729.81;;;14.04;69.73
33185;BME280;19550;42.872;25.494;2023-05-11T07:13:55;96731.72;;;14.12;68.65
33185;BME280;19550;42.872;25.494;2023-05-11T07:16:22;96732.22;;;14.14;68.17
33185;BME280;19550;42.872;25.494;2023-05-11T07:18:49;96736.81;;;14.10;67.32
33185;BME280;19550;42.872;25.494;2023-05-11T07:21:16;96733.47;;;14.25;68.89
33185;BME280;19550;42.872;25.494;2023-05-11T07:23:43;96737.88;;;14.35;68.68
33185;BME280;19550;42.872;25.494;2023-05-11T07:26:11;96734.25;;;14.64;67.68
33185;BME280;19550;42.872;25.494;2023-05-11T07:28:38;96726.59;;;14.82;66.79
33185;BME280;19550;42.872;25.494;2023-05-11T07:31:05;96732.84;;;14.99;65.60
33185;BME280;19550;42.872;25.494;2023-05-11T07:33:32;96728.75;;;14.97;66.18
33185;BME280;19550;42.872;25.494;2023-05-11T07:35:59;96739.03;;;15.05;64.86
33185;BME280;19550;42.872;25.494;2023-05-11T07:38:26;96733.69;;;15.33;64.32
33185;BME280;19550;42.872;25.494;2023-05-11T07:40:53;96727.63;;;15.31;63.37
33185;BME280;19550;42.872;25.494;2023-05-11T07:43:21;96737.25;;;15.21;60.21
33185;BME280;19550;42.872;25.494;2023-05-11T07:45:48;96742.91;;;15.33;60.50
33185;BME280;19550;42.872;25.494;2023-05-11T07:48:15;96738.69;;;15.27;59.69
33185;BME280;19550;42.872;25.494;2023-05-11T07:50:42;96740.63;;;15.47;58.93
33185;BME280;19550;42.872;25.494;2023-05-11T07:53:09;96739.28;;;15.54;57.43
33185;BME280;19550;42.872;25.494;2023-05-11T07:55:36;96745.63;;;15.21;57.84
33185;BME280;19550;42.872;25.494;2023-05-11T07:58:03;96742.91;;;15.33;57.56
33185;BME280;19550;42.872;25.494;2023-05-11T08:00:31;96757.03;;;15.49;56.24
33185;BME280;19550;42.872;25.494;2023-05-11T08:02:58;96737.34;;;15.45;59.15
33185;BME280;19550;42.872;25.494;2023-05-11T08:05:25;96741.88;;;15.71;57.22
33185;BME280;19550;42.872;25.494;2023-05-11T08:07:52;96741.47;;;16.05;55.70
33185;BME280;19550;42.872;25.494;2023-05-11T08:10:19;96744.09;;;15.77;57.08
33185;BME280;19550;42.872;25.494;2023-05-11T08:12:46;96760.88;;;15.24;54.50
33185;BME280;19550;42.872;25.494;2023-05-11T08:15:12;96748.19;;;15.47;55.63
33185;BME280;19550;42.872;25.494;2023-05-11T08:17:40;96746.66;;;15.70;55.78
33185;BME280;19550;42.872;25.494;2023-05-11T08:20:11;96733.97;;;15.40;55.11
33185;BME280;19550;42.872;25.494;2023-05-11T08:22:37;96752.19;;;15.91;54.52
33185;BME280;19550;42.872;25.494;2023-05-11T08:25:05;96736.94;;;16.01;55.37
33185;BME280;19550;42.872;25.494;2023-05-11T08:27:32;96735.31;;;16.00;55.30
33185;BME280;19550;42.872;25.494;2023-05-11T08:29:59;96740.56;;;16.13;55.80
33185;BME280;19550;42.872;25.494;2023-05-11T08:32:26;96737.78;;;16.25;55.24
33185;BME280;19550;42.872;25.494;2023-05-11T08:34:55;96743.84;;;16.15;54.74
33185;BME280;19550;42.872;25.494;2023-05-11T08:37:22;96751.53;;;16.30;55.67
33185;BME280;19550;42.872;25.494;2023-05-11T08:39:48;96747.09;;;16.29;55.16
33185;BME280;19550;42.872;25.494;2023-05-11T08:42:16;96743.22;;;15.98;56.02
33185;BME280;19550;42.872;25.494;2023-05-11T08:44:43;96753.00;;;16.04;54.02
33185;BME280;19550;42.872;25.494;2023-05-11T08:47:10;96744.03;;;15.86;56.46
33185;BME280;19550;42.872;25.494;2023-05-11T08:49:38;96734.63;;;16.27;56.06
33185;BME280;19550;42.872;25.494;2023-05-11T08:52:07;96741.88;;;16.40;54.42
33185;BME280;19550;42.872;25.494;2023-05-11T08:54:35;96752.00;;;16.20;52.38
33185;BME280;19550;42.872;25.494;2023-05-11T08:57:01;96750.59;;;16.39;53.36
33185;BME280;19550;42.872;25.494;2023-05-11T08:59:31;96745.34;;;16.25;53.19
33185;BME280;19550;42.872;25.494;2023-05-11T09:01:58;96742.56;;;16.25;53.12
33185;BME280;19550;42.872;25.494;2023-05-11T09:04:26;96746.38;;;16.57;53.53
33185;BME280;19550;42.872;25.494;2023-05-11T09:06:54;96753.88;;;16.65;51.39
33185;BME280;19550;42.872;25.494;2023-05-11T09:09:23;96755.34;;;16.02;51.83
33185;BME280;19550;42.872;25.494;2023-05-11T09:11:51;96743.47;;;16.17;53.37
33185;BME280;19550;42.872;25.494;2023-05-11T09:14:19;96737.88;;;16.53;53.41
33185;BME280;19550;42.872;25.494;2023-05-11T09:16:46;96733.22;;;16.33;51.27
33185;BME280;19550;42.872;25.494;2023-05-11T09:19:14;96745.25;;;16.70;52.10
33185;BME280;19550;42.872;25.494;2023-05-11T09:21:41;96743.25;;;16.46;51.63
33185;BME280;19550;42.872;25.494;2023-05-11T09:24:10;96745.56;;;16.56;53.68
33185;BME280;19550;42.872;25.494;2023-05-11T09:26:39;96744.84;;;15.99;53.42
33185;BME280;19550;42.872;25.494;2023-05-11T09:29:06;96743.25;;;16.22;55.52
33185;BME280;19550;42.872;25.494;2023-05-11T09:31:37;96745.25;;;16.46;55.51
33185;BME280;19550;42.872;25.494;2023-05-11T09:34:11;96752.81;;;16.09;57.95
33185;BME280;19550;42.872;25.494;2023-05-11T09:36:39;96751.88;;;16.29;58.74
33185;BME280;19550;42.872;25.494;2023-05-11T09:39:06;96759.56;;;16.32;58.94
33185;BME280;19550;42.872;25.494;2023-05-11T09:41:33;96746.16;;;16.13;59.46
33185;BME280;19550;42.872;25.494;2023-05-11T09:44:05;96745.69;;;16.23;59.34
33185;BME280;19550;42.872;25.494;2023-05-11T09:46:35;96750.59;;;16.26;56.94
33185;BME280;19550;42.872;25.494;2023-05-11T09:49:02;96747.31;;;16.24;58.71
33185;BME280;19550;42.872;25.494;2023-05-11T09:51:30;96749.78;;;16.38;56.63
33185;BME280;19550;42.872;25.494;2023-05-11T09:53:57;96738.94;;;16.37;55.97
33185;BME280;19550;42.872;25.494;2023-05-11T09:56:43;96753.03;;;16.52;55.64
33185;BME280;19550;42.872;25.494;2023-05-11T09:59:14;96744.53;;;16.85;55.04
33185;BME280;19550;42.872;25.494;2023-05-11T10:01:41;96755.53;;;16.66;54.82
33185;BME280;19550;42.872;25.494;2023-05-11T10:04:08;96735.78;;;16.87;55.14
33185;BME280;19550;42.872;25.494;2023-05-11T10:06:46;96739.69;;;17.10;54.49
33185;BME280;19550;42.872;25.494;2023-05-11T10:09:14;96746.72;;;16.55;55.37
33185;BME280;19550;42.872;25.494;2023-05-11T10:11:43;96745.25;;;16.34;56.42
33185;BME280;19550;42.872;25.494;2023-05-11T10:14:13;96739.44;;;16.75;55.04
33185;BME280;19550;42.872;25.494;2023-05-11T10:16:41;96750.34;;;16.92;54.69
33185;BME280;19550;42.872;25.494;2023-05-11T10:19:09;96737.84;;;17.30;54.71
33185;BME280;19550;42.872;25.494;2023-05-11T10:21:36;96734.81;;;17.35;53.57
33185;BME280;19550;42.872;25.494;2023-05-11T10:24:04;96727.00;;;17.56;53.38
33185;BME280;19550;42.872;25.494;2023-05-11T10:26:32;96738.91;;;17.65;52.82
33185;BME280;19550;42.872;25.494;2023-05-11T10:28:59;96737.50;;;17.59;53.10
33185;BME280;19550;42.872;25.494;2023-05-11T10:31:27;96747.44;;;17.29;50.57
33185;BME280;19550;42.872;25.494;2023-05-11T10:33:55;96736.22;;;17.57;52.89
33185;BME280;19550;42.872;25.494;2023-05-11T10:36:23;96739.97;;;18.04;52.17
33185;BME280;19550;42.872;25.494;2023-05-11T10:38:50;96735.72;;;18.26;51.05
33185;BME280;19550;42.872;25.494;2023-05-11T10:41:44;96742.31;;;17.86;52.13
33185;BME280;19550;42.872;25.494;2023-05-11T10:44:24;96737.06;;;17.85;52.79
33185;BME280;19550;42.872;25.494;2023-05-11T10:47:13;96730.75;;;17.88;52.00
33185;BME280;19550;42.872;25.494;2023-05-11T10:50:15;96727.66;;;18.40;52.64
33185;BME280;19550;42.872;25.494;2023-05-11T10:53:10;96732.19;;;18.45;50.86
33185;BME280;19550;42.872;25.494;2023-05-11T10:56:01;96740.72;;;18.33;51.07
33185;BME280;19550;42.872;25.494;2023-05-11T10:58:39;96738.53;;;18.73;49.83
33185;BME280;19550;42.872;25.494;2023-05-11T11:01:24;96733.44;;;18.79;50.46
33185;BME280;19550;42.872;25.494;2023-05-11T11:03:57;96744.50;;;18.40;50.52
33185;BME280;19550;42.872;25.494;2023-05-11T11:06:26;96745.19;;;17.74;51.75
33185;BME280;19550;42.872;25.494;2023-05-11T11:08:55;96737.66;;;17.78;52.05
33185;BME280;19550;42.872;25.494;2023-05-11T11:11:30;96732.00;;;17.91;52.13
33185;BME280;19550;42.872;25.494;2023-05-11T11:13:59;96718.78;;;18.54;51.61
33185;BME280;19550;42.872;25.494;2023-05-11T11:16:28;96736.81;;;18.21;50.69
33185;BME280;19550;42.872;25.494;2023-05-11T11:19:35;96744.25;;;18.14;50.44
33185;BME280;19550;42.872;25.494;2023-05-11T11:22:03;96739.47;;;17.71;51.15
33185;BME280;19550;42.872;25.494;2023-05-11T11:24:43;96736.63;;;17.99;51.44
33185;BME280;19550;42.872;25.494;2023-05-11T11:27:11;96720.25;;;18.48;51.00
33185;BME280;19550;42.872;25.494;2023-05-11T11:29:38;96737.09;;;18.32;51.93
33185;BME280;19550;42.872;25.494;2023-05-11T11:32:24;96728.13;;;18.11;53.02
33185;BME280;19550;42.872;25.494;2023-05-11T11:34:52;96724.38;;;18.70;51.14
33185;BME280;19550;42.872;25.494;2023-05-11T11:37:19;96725.59;;;18.21;50.87
33185;BME280;19550;42.872;25.494;2023-05-11T11:39:52;96725.41;;;18.14;51.80
33185;BME280;19550;42.872;25.494;2023-05-11T11:42:42;96715.63;;;18.55;51.93
33185;BME280;19550;42.872;25.494;2023-05-11T11:45:29;96719.78;;;18.46;52.24
33185;BME280;19550;42.872;25.494;2023-05-11T11:48:14;96712.72;;;18.68;52.35
33185;BME280;19550;42.872;25.494;2023-05-11T11:50:44;96705.53;;;18.70;52.37
33185;BME280;19550;42.872;25.494;2023-05-11T11:53:13;96706.72;;;18.69;51.70
33185;BME280;19550;42.872;25.494;2023-05-11T11:55:59;96705.69;;;18.93;51.17
33185;BME280;19550;42.872;25.494;2023-05-11T11:58:57;96712.09;;;18.27;52.40
33185;BME280;19550;42.872;25.494;2023-05-11T12:01:27;96704.41;;;18.40;53.70
33185;BME280;19550;42.872;25.494;2023-05-11T12:04:16;96707.91;;;18.52;53.67
33185;BME280;19550;42.872;25.494;2023-05-11T12:06:55;96702.75;;;18.39;54.50
33185;BME280;19550;42.872;25.494;2023-05-11T12:09:23;96696.31;;;18.70;55.11
33185;BME280;19550;42.872;25.494;2023-05-11T12:11:51;96699.59;;;18.91;53.38
33185;BME280;19550;42.872;25.494;2023-05-11T12:14:20;96702.75;;;18.54;53.02
33185;BME280;19550;42.872;25.494;2023-05-11T12:17:04;96690.28;;;18.87;54.18
33185;BME280;19550;42.872;25.494;2023-05-11T12:19:33;96695.94;;;18.71;52.23
33185;BME280;19550;42.872;25.494;2023-05-11T12:22:02;96710.84;;;18.91;52.34
33185;BME280;19550;42.872;25.494;2023-05-11T12:24:28;96685.69;;;18.79;52.09
33185;BME280;19550;42.872;25.494;2023-05-11T12:26:56;96692.81;;;19.11;52.49
33185;BME280;19550;42.872;25.494;2023-05-11T12:29:23;96678.91;;;19.57;50.81
33185;BME280;19550;42.872;25.494;2023-05-11T12:31:50;96688.94;;;18.81;49.30
33185;BME280;19550;42.872;25.494;2023-05-11T12:34:18;96679.78;;;19.03;50.00
33185;BME280;19550;42.872;25.494;2023-05-11T12:36:46;96680.84;;;19.14;49.47
33185;BME280;19550;42.872;25.494;2023-05-11T12:39:19;96678.63;;;19.23;49.72
33185;BME280;19550;42.872;25.494;2023-05-11T12:41:47;96672.28;;;18.72;51.07
33185;BME280;19550;42.872;25.494;2023-05-11T12:44:15;96671.13;;;18.73;49.10
33185;BME280;19550;42.872;25.494;2023-05-11T12:46:43;96668.94;;;19.21;50.67
33185;BME280;19550;42.872;25.494;2023-05-11T12:49:10;96660.19;;;19.64;49.24
33185;BME280;19550;42.872;25.494;2023-05-11T12:51:59;96658.09;;;19.61;49.98
33185;BME280;19550;42.872;25.494;2023-05-11T12:54:32;96667.63;;;19.76;50.27
33185;BME280;19550;42.872;25.494;2023-05-11T12:57:00;96664.53;;;19.42;49.64
33185;BME280;19550;42.872;25.494;2023-05-11T12:59:31;96661.38;;;19.63;49.36
33185;BME280;19550;42.872;25.494;2023-05-11T13:02:12;96655.38;;;19.45;50.65
33185;BME280;19550;42.872;25.494;2023-05-11T13:04:42;96665.50;;;19.69;48.32